sensor_id;sensor_type;location;lat;lon;timestamp;pressure;altitude;pressure_sealevel;temperature;humidity
74403;BME280;62837;51.082;13.744;2022-12-05T00:01:24;100322.95;;;6.56;77.49
74403;BME280;62837;51.082;13.744;2022-12-05T00:03:56;100317.55;;;6.57;77.40
74403;BME280;62837;51.082;13.744;2022-12-05T00:06:29;100319.05;;;6.58;77.37
74403;BME280;62837;51.082;13.744;2022-12-05T00:09:00;100317.52;;;6.58;77.11
74403;BME280;62837;51.082;13.744;2022-12-05T00:11:33;100313.70;;;6.58;77.00
74403;BME280;62837;51.082;13.744;2022-12-05T00:14:05;100316.51;;;6.59;77.26
74403;BME280;62837;51.082;13.744;2022-12-05T00:16:38;100318.39;;;6.59;77.26
74403;BME280;62837;51.082;13.744;2022-12-05T00:19:11;100316.25;;;6.59;76.77
74403;BME280;62837;51.082;13.744;2022-12-05T00:21:43;100313.68;;;6.59;76.74
74403;BME280;62837;51.082;13.744;2022-12-05T00:24:16;100316.66;;;6.60;77.05
74403;BME280;62837;51.082;13.744;2022-12-05T00:26:47;100319.35;;;6.60;76.94
74403;BME280;62837;51.082;13.744;2022-12-05T00:29:18;100323.63;;;6.61;77.03
74403;BME280;62837;51.082;13.744;2022-12-05T00:31:49;100323.85;;;6.61;76.69
74403;BME280;62837;51.082;13.744;2022-12-05T00:34:19;100325.13;;;6.62;76.49
74403;BME280;62837;51.082;13.744;2022-12-05T00:36:50;100328.96;;;6.63;76.65
74403;BME280;62837;51.082;13.744;2022-12-05T00:39:21;100330.46;;;6.63;76.63
74403;BME280;62837;51.082;13.744;2022-12-05T00:41:52;100328.11;;;6.64;76.64
74403;BME280;62837;51.082;13.744;2022-12-05T00:44:23;100327.78;;;6.63;76.69
74403;BME280;62837;51.082;13.744;2022-12-05T00:46:53;100331.25;;;6.65;76.71
74403;BME280;62837;51.082;13.744;2022-12-05T00:49:24;100325.70;;;6.65;76.58
74403;BME280;62837;51.082;13.744;2022-12-05T00:51:55;100332.93;;;6.65;76.57
74403;BME280;62837;51.082;13.744;2022-12-05T00:54:25;100332.55;;;6.66;76.64
74403;BME280;62837;51.082;13.744;2022-12-05T00:56:56;100335.61;;;6.66;76.57
74403;BME280;62837;51.082;13.744;2022-12-05T00:59:27;100335.95;;;6.66;76.74
74403;BME280;62837;51.082;13.744;2022-12-05T01:01:58;100332.79;;;6.66;76.68
74403;BME280;62837;51.082;13.744;2022-12-05T01:04:29;100328.38;;;6.67;76.56
74403;BME280;62837;51.082;13.744;2022-12-05T01:06:59;100325.38;;;6.67;76.66
74403;BME280;62837;51.082;13.744;2022-12-05T01:09:30;100331.66;;;6.68;76.65
74403;BME280;62837;51.082;13.744;2022-12-05T01:12:01;100327.40;;;6.68;76.66
74403;BME280;62837;51.082;13.744;2022-12-05T01:14:31;100331.35;;;6.66;76.73
74403;BME280;62837;51.082;13.744;2022-12-05T01:17:03;100329.78;;;6.69;76.43
74403;BME280;62837;51.082;13.744;2022-12-05T01:19:34;100326.25;;;6.70;76.48
74403;BME280;62837;51.082;13.744;2022-12-05T01:22:04;100331.96;;;6.70;76.49
74403;BME280;62837;51.082;13.744;2022-12-05T01:24:35;100334.72;;;6.72;76.65
74403;BME280;62837;51.082;13.744;2022-12-05T01:27:06;100331.38;;;6.69;76.71
74403;BME280;62837;51.082;13.744;2022-12-05T01:29:36;100335.86;;;6.71;76.80
74403;BME280;62837;51.082;13.744;2022-12-05T01:32:07;100330.39;;;6.71;76.59
74403;BME280;62837;51.082;13.744;2022-12-05T01:34:38;100329.42;;;6.72;76.68
74403;BME280;62837;51.082;13.744;2022-12-05T01:37:09;100327.20;;;6.72;76.87
74403;BME280;62837;51.082;13.744;2022-12-05T01:39:40;100330.80;;;6.72;77.14
74403;BME280;62837;51.082;13.744;2022-12-05T01:42:11;100334.68;;;6.73;76.87
74403;BME280;62837;51.082;13.744;2022-12-05T01:45:05;100337.48;;;6.74;76.90
74403;BME280;62837;51.082;13.744;2022-12-05T01:47:36;100342.19;;;6.74;76.74
74403;BME280;62837;51.082;13.744;2022-12-05T01:50:08;100343.23;;;6.74;76.82
74403;BME280;62837;51.082;13.744;2022-12-05T01:52:40;100349.50;;;6.75;77.04
74403;BME280;62837;51.082;13.744;2022-12-05T01:55:13;100342.34;;;6.75;76.92
74403;BME280;62837;51.082;13.744;2022-12-05T01:57:46;100340.79;;;6.76;76.93
74403;BME280;62837;51.082;13.744;2022-12-05T02:00:19;100339.64;;;6.76;77.55
74403;BME280;62837;51.082;13.744;2022-12-05T02:02:53;100339.39;;;6.76;77.17
74403;BME280;62837;51.082;13.744;2022-12-05T02:05:26;100339.14;;;6.76;77.10
74403;BME280;62837;51.082;13.744;2022-12-05T02:07:58;100337.08;;;6.76;77.09
74403;BME280;62837;51.082;13.744;2022-12-05T02:10:34;100333.38;;;6.77;76.97
74403;BME280;62837;51.082;13.744;2022-12-05T02:13:14;100332.52;;;6.77;77.40
74403;BME280;62837;51.082;13.744;2022-12-05T02:15:51;100336.35;;;6.78;77.34
74403;BME280;62837;51.082;13.744;2022-12-05T02:18:37;100338.66;;;6.79;77.33
74403;BME280;62837;51.082;13.744;2022-12-05T02:21:27;100337.07;;;6.79;77.13
74403;BME280;62837;51.082;13.744;2022-12-05T02:24:16;100339.16;;;6.79;77.20
74403;BME280;62837;51.082;13.744;2022-12-05T02:27:10;100342.23;;;6.79;77.19
74403;BME280;62837;51.082;13.744;2022-12-05T02:29:56;100341.27;;;6.79;77.10
74403;BME280;62837;51.082;13.744;2022-12-05T02:32:41;100344.17;;;6.78;77.10
74403;BME280;62837;51.082;13.744;2022-12-05T02:35:24;100341.98;;;6.79;77.07
74403;BME280;62837;51.082;13.744;2022-12-05T02:38:03;100344.95;;;6.79;77.11
74403;BME280;62837;51.082;13.744;2022-12-05T02:40:42;100343.73;;;6.80;77.32
74403;BME280;62837;51.082;13.744;2022-12-05T02:43:19;100348.20;;;6.80;77.19
74403;BME280;62837;51.082;13.744;2022-12-05T02:45:54;100343.19;;;6.80;77.30
74403;BME280;62837;51.082;13.744;2022-12-05T02:48:28;100344.88;;;6.80;77.26
74403;BME280;62837;51.082;13.744;2022-12-05T02:51:02;100338.49;;;6.79;77.20
74403;BME280;62837;51.082;13.744;2022-12-05T02:53:35;100334.44;;;6.78;77.24
74403;BME280;62837;51.082;13.744;2022-12-05T02:56:07;100332.70;;;6.78;77.16
74403;BME280;62837;51.082;13.744;2022-12-05T02:58:45;100333.91;;;6.79;77.35
74403;BME280;62837;51.082;13.744;2022-12-05T03:01:19;100327.42;;;6.80;77.49
74403;BME280;62837;51.082;13.744;2022-12-05T03:03:51;100326.83;;;6.80;77.47
74403;BME280;62837;51.082;13.744;2022-12-05T03:06:26;100326.91;;;6.81;77.66
74403;BME280;62837;51.082;13.744;2022-12-05T03:09:02;100324.96;;;6.81;77.79
74403;BME280;62837;51.082;13.744;2022-12-05T03:11:39;100327.95;;;6.81;77.67
74403;BME280;62837;51.082;13.744;2022-12-05T03:14:14;100331.40;;;6.81;77.85
74403;BME280;62837;51.082;13.744;2022-12-05T03:16:51;100330.95;;;6.80;77.64
74403;BME280;62837;51.082;13.744;2022-12-05T03:19:26;100331.38;;;6.80;77.46
74403;BME280;62837;51.082;13.744;2022-12-05T03:22:02;100329.69;;;6.80;77.82
74403;BME280;62837;51.082;13.744;2022-12-05T03:24:38;100325.27;;;6.80;77.58
74403;BME280;62837;51.082;13.744;2022-12-05T03:27:16;100324.44;;;6.80;77.65
74403;BME280;62837;51.082;13.744;2022-12-05T03:29:56;100329.29;;;6.80;77.69
74403;BME280;62837;51.082;13.744;2022-12-05T03:32:35;100329.27;;;6.79;77.60
74403;BME280;62837;51.082;13.744;2022-12-05T03:35:12;100332.85;;;6.80;77.72
74403;BME280;62837;51.082;13.744;2022-12-05T03:37:51;100332.52;;;6.80;77.57
74403;BME280;62837;51.082;13.744;2022-12-05T03:40:28;100338.15;;;6.80;77.93
74403;BME280;62837;51.082;13.744;2022-12-05T03:43:09;100339.08;;;6.80;77.71
74403;BME280;62837;51.082;13.744;2022-12-05T03:45:45;100345.30;;;6.79;78.07
74403;BME280;62837;51.082;13.744;2022-12-05T03:48:21;100344.70;;;6.80;78.01
74403;BME280;62837;51.082;13.744;2022-12-05T03:50:53;100344.88;;;6.80;77.91
74403;BME280;62837;51.082;13.744;2022-12-05T03:53:29;100349.08;;;6.80;77.96
74403;BME280;62837;51.082;13.744;2022-12-05T03:56:05;100345.26;;;6.80;77.74
74403;BME280;62837;51.082;13.744;2022-12-05T03:58:40;100338.56;;;6.79;77.78
74403;BME280;62837;51.082;13.744;2022-12-05T04:01:14;100342.73;;;6.80;77.77
74403;BME280;62837;51.082;13.744;2022-12-05T04:03:49;100346.27;;;6.79;77.76
74403;BME280;62837;51.082;13.744;2022-12-05T04:06:25;100343.77;;;6.78;77.64
74403;BME280;62837;51.082;13.744;2022-12-05T04:09:00;100347.38;;;6.78;77.63
74403;BME280;62837;51.082;13.744;2022-12-05T04:11:35;100350.88;;;6.78;77.51
74403;BME280;62837;51.082;13.744;2022-12-05T04:14:09;100347.33;;;6.77;77.51
74403;BME280;62837;51.082;13.744;2022-12-05T04:16:44;100346.08;;;6.77;77.33
74403;BME280;62837;51.082;13.744;2022-12-05T04:19:39;100351.73;;;6.76;77.25
74403;BME280;62837;51.082;13.744;2022-12-05T04:22:30;100353.88;;;6.75;77.11
74403;BME280;62837;51.082;13.744;2022-12-05T04:25:03;100355.77;;;6.74;77.39
74403;BME280;62837;51.082;13.744;2022-12-05T04:27:55;100355.17;;;6.75;77.36
74403;BME280;62837;51.082;13.744;2022-12-05T04:30:33;100356.22;;;6.75;77.53
74403;BME280;62837;51.082;13.744;2022-12-05T04:33:09;100354.25;;;6.75;77.37
74403;BME280;62837;51.082;13.744;2022-12-05T04:35:46;100359.15;;;6.76;77.47
74403;BME280;62837;51.082;13.744;2022-12-05T04:38:23;100356.14;;;6.76;77.30
74403;BME280;62837;51.082;13.744;2022-12-05T04:40:58;100355.84;;;6.75;77.26
74403;BME280;62837;51.082;13.744;2022-12-05T04:43:31;100358.03;;;6.75;77.24
74403;BME280;62837;51.082;13.744;2022-12-05T04:46:06;100354.13;;;6.74;77.21
74403;BME280;62837;51.082;13.744;2022-12-05T04:48:39;100358.67;;;6.75;77.25
74403;BME280;62837;51.082;13.744;2022-12-05T04:51:16;100359.60;;;6.74;77.05
74403;BME280;62837;51.082;13.744;2022-12-05T04:53:51;100359.21;;;6.75;77.27
74403;BME280;62837;51.082;13.744;2022-12-05T04:56:26;100358.36;;;6.75;77.44
74403;BME280;62837;51.082;13.744;2022-12-05T04:58:59;100361.01;;;6.76;77.60
74403;BME280;62837;51.082;13.744;2022-12-05T05:01:34;100366.47;;;6.76;77.82
74403;BME280;62837;51.082;13.744;2022-12-05T05:04:10;100369.48;;;6.76;77.78
74403;BME280;62837;51.082;13.744;2022-12-05T05:06:43;100364.74;;;6.73;77.76
74403;BME280;62837;51.082;13.744;2022-12-05T05:09:14;100375.64;;;6.78;77.55
74403;BME280;62837;51.082;13.744;2022-12-05T05:11:45;100377.66;;;6.78;77.58
74403;BME280;62837;51.082;13.744;2022-12-05T05:14:15;100379.15;;;6.79;77.66
74403;BME280;62837;51.082;13.744;2022-12-05T05:16:46;100376.07;;;6.80;77.71
74403;BME280;62837;51.082;13.744;2022-12-05T05:19:17;100378.17;;;6.80;77.76
74403;BME280;62837;51.082;13.744;2022-12-05T05:21:48;100378.63;;;6.81;77.73
74403;BME280;62837;51.082;13.744;2022-12-05T05:24:23;100379.84;;;6.81;77.62
74403;BME280;62837;51.082;13.744;2022-12-05T05:26:55;100378.63;;;6.81;77.59
74403;BME280;62837;51.082;13.744;2022-12-05T05:29:26;100378.54;;;6.81;78.13
74403;BME280;62837;51.082;13.744;2022-12-05T05:31:57;100372.44;;;6.78;77.72
74403;BME280;62837;51.082;13.744;2022-12-05T05:34:27;100378.86;;;6.82;78.09
74403;BME280;62837;51.082;13.744;2022-12-05T05:37:01;100382.05;;;6.83;78.45
74403;BME280;62837;51.082;13.744;2022-12-05T05:39:31;100384.25;;;6.83;78.14
74403;BME280;62837;51.082;13.744;2022-12-05T05:42:02;100388.95;;;6.83;78.21
74403;BME280;62837;51.082;13.744;2022-12-05T05:44:33;100391.73;;;6.83;78.19
74403;BME280;62837;51.082;13.744;2022-12-05T05:47:04;100393.30;;;6.85;78.04
74403;BME280;62837;51.082;13.744;2022-12-05T05:49:35;100389.83;;;6.85;78.00
74403;BME280;62837;51.082;13.744;2022-12-05T05:52:06;100389.98;;;6.85;77.90
74403;BME280;62837;51.082;13.744;2022-12-05T05:54:36;100392.09;;;6.86;78.03
74403;BME280;62837;51.082;13.744;2022-12-05T05:57:07;100395.82;;;6.86;78.30
74403;BME280;62837;51.082;13.744;2022-12-05T05:59:38;100395.63;;;6.87;78.52
74403;BME280;62837;51.082;13.744;2022-12-05T06:02:09;100398.11;;;6.89;78.65
74403;BME280;62837;51.082;13.744;2022-12-05T06:04:39;100398.70;;;6.90;78.98
74403;BME280;62837;51.082;13.744;2022-12-05T06:07:10;100400.63;;;6.90;79.36
74403;BME280;62837;51.082;13.744;2022-12-05T06:09:41;100405.29;;;6.96;80.77
74403;BME280;62837;51.082;13.744;2022-12-05T06:12:11;100401.10;;;6.99;79.99
74403;BME280;62837;51.082;13.744;2022-12-05T06:14:42;100402.23;;;7.00;79.28
74403;BME280;62837;51.082;13.744;2022-12-05T06:17:13;100404.39;;;6.99;78.89
74403;BME280;62837;51.082;13.744;2022-12-05T06:19:44;100407.29;;;6.99;79.85
74403;BME280;62837;51.082;13.744;2022-12-05T06:22:14;100410.70;;;7.41;87.11
74403;BME280;62837;51.082;13.744;2022-12-05T06:24:45;100406.65;;;7.79;85.43
74403;BME280;62837;51.082;13.744;2022-12-05T06:27:16;100405.34;;;7.94;81.40
74403;BME280;62837;51.082;13.744;2022-12-05T06:29:47;100409.77;;;7.94;79.92
74403;BME280;62837;51.082;13.744;2022-12-05T06:32:17;100422.66;;;7.90;79.12
74403;BME280;62837;51.082;13.744;2022-12-05T06:34:48;100426.52;;;7.82;77.78
74403;BME280;62837;51.082;13.744;2022-12-05T06:37:19;100431.66;;;7.73;78.10
74403;BME280;62837;51.082;13.744;2022-12-05T06:39:51;100436.54;;;7.67;78.04
74403;BME280;62837;51.082;13.744;2022-12-05T06:42:21;100442.25;;;7.60;77.94
74403;BME280;62837;51.082;13.744;2022-12-05T06:44:52;100447.05;;;7.55;77.34
74403;BME280;62837;51.082;13.744;2022-12-05T06:47:23;100445.89;;;7.48;77.01
74403;BME280;62837;51.082;13.744;2022-12-05T06:49:54;100454.83;;;7.42;77.10
74403;BME280;62837;51.082;13.744;2022-12-05T06:52:25;100461.30;;;7.38;77.32
74403;BME280;62837;51.082;13.744;2022-12-05T06:54:56;100463.91;;;7.35;77.30
74403;BME280;62837;51.082;13.744;2022-12-05T06:57:29;100465.23;;;7.31;76.99
74403;BME280;62837;51.082;13.744;2022-12-05T07:00:00;100465.52;;;7.27;76.69
74403;BME280;62837;51.082;13.744;2022-12-05T07:02:43;100466.48;;;7.22;77.81
74403;BME280;62837;51.082;13.744;2022-12-05T07:05:15;100466.13;;;7.23;77.40
74403;BME280;62837;51.082;13.744;2022-12-05T07:07:45;100468.50;;;7.19;76.84
74403;BME280;62837;51.082;13.744;2022-12-05T07:10:16;100468.98;;;7.17;77.09
74403;BME280;62837;51.082;13.744;2022-12-05T07:12:47;100470.25;;;7.15;76.96
74403;BME280;62837;51.082;13.744;2022-12-05T07:15:18;100468.04;;;7.14;77.20
74403;BME280;62837;51.082;13.744;2022-12-05T07:17:49;100464.13;;;7.14;76.72
74403;BME280;62837;51.082;13.744;2022-12-05T07:20:19;100461.73;;;7.11;76.70
74403;BME280;62837;51.082;13.744;2022-12-05T07:22:50;100464.32;;;7.10;76.75
74403;BME280;62837;51.082;13.744;2022-12-05T07:25:21;100468.58;;;7.09;77.03
74403;BME280;62837;51.082;13.744;2022-12-05T07:27:53;100471.48;;;7.10;76.65
74403;BME280;62837;51.082;13.744;2022-12-05T07:30:24;100469.55;;;7.09;76.52
74403;BME280;62837;51.082;13.744;2022-12-05T07:32:54;100458.78;;;7.09;76.59
74403;BME280;62837;51.082;13.744;2022-12-05T07:35:25;100462.52;;;7.09;76.64
74403;BME280;62837;51.082;13.744;2022-12-05T07:37:56;100465.00;;;7.09;76.28
74403;BME280;62837;51.082;13.744;2022-12-05T07:40:27;100465.48;;;7.08;76.42
74403;BME280;62837;51.082;13.744;2022-12-05T07:42:57;100466.13;;;7.08;76.46
74403;BME280;62837;51.082;13.744;2022-12-05T07:45:28;100469.73;;;7.08;76.47
74403;BME280;62837;51.082;13.744;2022-12-05T07:47:59;100482.46;;;7.08;76.83
74403;BME280;62837;51.082;13.744;2022-12-05T07:50:30;100484.95;;;7.09;76.79
74403;BME280;62837;51.082;13.744;2022-12-05T07:53:00;100481.29;;;7.09;76.76
74403;BME280;62837;51.082;13.744;2022-12-05T07:55:31;100484.98;;;7.08;76.33
74403;BME280;62837;51.082;13.744;2022-12-05T07:58:02;100485.25;;;7.07;76.32
74403;BME280;62837;51.082;13.744;2022-12-05T08:00:32;100490.86;;;7.05;76.37
74403;BME280;62837;51.082;13.744;2022-12-05T08:03:03;100493.15;;;7.02;76.93
74403;BME280;62837;51.082;13.744;2022-12-05T08:05:35;100496.77;;;6.98;76.80
74403;BME280;62837;51.082;13.744;2022-12-05T08:08:06;100500.52;;;6.93;76.77
74403;BME280;62837;51.082;13.744;2022-12-05T08:10:37;100506.40;;;6.89;77.02
74403;BME280;62837;51.082;13.744;2022-12-05T08:13:07;100511.84;;;6.85;76.97
74403;BME280;62837;51.082;13.744;2022-12-05T08:15:38;100512.84;;;6.82;77.06
74403;BME280;62837;51.082;13.744;2022-12-05T08:18:09;100513.27;;;6.78;77.04
74403;BME280;62837;51.082;13.744;2022-12-05T08:20:40;100510.52;;;6.75;76.81
74403;BME280;62837;51.082;13.744;2022-12-05T08:23:10;100509.02;;;6.73;77.17
74403;BME280;62837;51.082;13.744;2022-12-05T08:25:41;100512.78;;;6.72;77.15
74403;BME280;62837;51.082;13.744;2022-12-05T08:28:12;100511.95;;;6.72;77.36
74403;BME280;62837;51.082;13.744;2022-12-05T08:30:43;100510.58;;;6.70;77.22
74403;BME280;62837;51.082;13.744;2022-12-05T08:33:14;100511.92;;;6.69;77.21
74403;BME280;62837;51.082;13.744;2022-12-05T08:35:45;100513.11;;;6.69;77.39
74403;BME280;62837;51.082;13.744;2022-12-05T08:38:16;100517.90;;;6.70;77.36
74403;BME280;62837;51.082;13.744;2022-12-05T08:40:46;100520.75;;;6.70;77.36
74403;BME280;62837;51.082;13.744;2022-12-05T08:43:17;100524.23;;;6.72;77.39
74403;BME280;62837;51.082;13.744;2022-12-05T08:45:51;100519.64;;;6.74;77.31
74403;BME280;62837;51.082;13.744;2022-12-05T08:48:22;100511.48;;;6.69;77.32
74403;BME280;62837;51.082;13.744;2022-12-05T08:50:58;100519.80;;;6.74;77.26
74403;BME280;62837;51.082;13.744;2022-12-05T08:53:29;100513.53;;;6.76;77.45
74403;BME280;62837;51.082;13.744;2022-12-05T08:56:02;100513.11;;;6.78;77.55
74403;BME280;62837;51.082;13.744;2022-12-05T08:58:33;100516.08;;;6.80;77.52
74403;BME280;62837;51.082;13.744;2022-12-05T09:01:06;100516.88;;;6.82;77.49
74403;BME280;62837;51.082;13.744;2022-12-05T09:03:37;100523.75;;;6.84;77.45
74403;BME280;62837;51.082;13.744;2022-12-05T09:06:16;100523.95;;;6.85;77.44
74403;BME280;62837;51.082;13.744;2022-12-05T09:08:48;100527.95;;;6.87;77.56
74403;BME280;62837;51.082;13.744;2022-12-05T09:11:22;100530.58;;;6.89;77.34
74403;BME280;62837;51.082;13.744;2022-12-05T09:13:56;100530.44;;;6.90;77.34
74403;BME280;62837;51.082;13.744;2022-12-05T09:16:30;100534.65;;;6.90;77.51
74403;BME280;62837;51.082;13.744;2022-12-05T09:19:11;100539.89;;;6.91;77.44
74403;BME280;62837;51.082;13.744;2022-12-05T09:21:43;100545.12;;;6.91;77.62
74403;BME280;62837;51.082;13.744;2022-12-05T09:24:15;100549.70;;;6.90;77.43
74403;BME280;62837;51.082;13.744;2022-12-05T09:26:46;100553.33;;;6.89;77.53
74403;BME280;62837;51.082;13.744;2022-12-05T09:29:17;100554.67;;;6.89;77.73
74403;BME280;62837;51.082;13.744;2022-12-05T09:31:48;100559.30;;;6.89;77.63
74403;BME280;62837;51.082;13.744;2022-12-05T09:34:20;100560.65;;;6.88;77.63
74403;BME280;62837;51.082;13.744;2022-12-05T09:36:53;100567.55;;;6.86;77.64
74403;BME280;62837;51.082;13.744;2022-12-05T09:39:46;100567.10;;;6.85;77.98
74403;BME280;62837;51.082;13.744;2022-12-05T09:42:33;100566.96;;;6.86;77.96
74403;BME280;62837;51.082;13.744;2022-12-05T09:45:13;100559.27;;;6.83;77.73
74403;BME280;62837;51.082;13.744;2022-12-05T09:47:47;100564.23;;;6.86;77.72
74403;BME280;62837;51.082;13.744;2022-12-05T09:50:22;100557.39;;;6.84;77.51
74403;BME280;62837;51.082;13.744;2022-12-05T09:53:01;100560.92;;;6.84;77.61
74403;BME280;62837;51.082;13.744;2022-12-05T09:55:41;100564.58;;;6.85;77.95
74403;BME280;62837;51.082;13.744;2022-12-05T09:58:27;100561.48;;;6.87;78.06
74403;BME280;62837;51.082;13.744;2022-12-05T10:01:03;100561.64;;;6.89;77.85
74403;BME280;62837;51.082;13.744;2022-12-05T10:03:44;100563.95;;;6.91;78.02
74403;BME280;62837;51.082;13.744;2022-12-05T10:06:20;100563.84;;;6.92;77.87
74403;BME280;62837;51.082;13.744;2022-12-05T10:09:06;100566.50;;;6.94;78.15
74403;BME280;62837;51.082;13.744;2022-12-05T10:11:44;100566.77;;;6.97;78.27
74403;BME280;62837;51.082;13.744;2022-12-05T10:14:22;100569.36;;;7.01;78.16
74403;BME280;62837;51.082;13.744;2022-12-05T10:16:58;100566.86;;;7.05;78.11
74403;BME280;62837;51.082;13.744;2022-12-05T10:19:34;100571.55;;;7.07;77.92
74403;BME280;62837;51.082;13.744;2022-12-05T10:22:12;100572.17;;;7.10;78.02
74403;BME280;62837;51.082;13.744;2022-12-05T10:24:53;100574.31;;;7.12;77.74
74403;BME280;62837;51.082;13.744;2022-12-05T10:27:30;100570.59;;;7.12;77.73
74403;BME280;62837;51.082;13.744;2022-12-05T10:30:15;100572.12;;;7.13;77.85
74403;BME280;62837;51.082;13.744;2022-12-05T10:32:52;100569.65;;;7.13;77.78
74403;BME280;62837;51.082;13.744;2022-12-05T10:35:25;100567.21;;;7.11;77.21
74403;BME280;62837;51.082;13.744;2022-12-05T10:37:58;100567.25;;;7.07;77.34
74403;BME280;62837;51.082;13.744;2022-12-05T10:40:35;100562.94;;;7.03;77.28
74403;BME280;62837;51.082;13.744;2022-12-05T10:43:09;100561.02;;;7.00;77.35
74403;BME280;62837;51.082;13.744;2022-12-05T10:45:43;100558.54;;;6.98;77.43
74403;BME280;62837;51.082;13.744;2022-12-05T10:48:17;100559.52;;;7.00;77.75
74403;BME280;62837;51.082;13.744;2022-12-05T10:50:51;100556.67;;;7.01;77.53
74403;BME280;62837;51.082;13.744;2022-12-05T10:53:26;100553.93;;;7.03;77.72
74403;BME280;62837;51.082;13.744;2022-12-05T10:55:57;100548.40;;;7.05;77.40
74403;BME280;62837;51.082;13.744;2022-12-05T10:58:55;100552.05;;;7.05;77.16
74403;BME280;62837;51.082;13.744;2022-12-05T11:01:29;100553.31;;;7.06;76.98
74403;BME280;62837;51.082;13.744;2022-12-05T11:04:03;100552.71;;;7.09;76.79
74403;BME280;62837;51.082;13.744;2022-12-05T11:06:50;100560.14;;;7.11;76.75
74403;BME280;62837;51.082;13.744;2022-12-05T11:09:23;100559.00;;;7.13;76.50
74403;BME280;62837;51.082;13.744;2022-12-05T11:14:41;100557.30;;;7.17;76.21
74403;BME280;62837;51.082;13.744;2022-12-05T11:17:26;100551.02;;;7.17;75.84
74403;BME280;62837;51.082;13.744;2022-12-05T11:19:57;100549.71;;;7.18;75.26
74403;BME280;62837;51.082;13.744;2022-12-05T11:22:35;100552.77;;;7.17;75.10
74403;BME280;62837;51.082;13.744;2022-12-05T11:25:28;100557.17;;;7.15;75.15
74403;BME280;62837;51.082;13.744;2022-12-05T11:30:57;100553.05;;;7.15;75.29
74403;BME280;62837;51.082;13.744;2022-12-05T11:33:29;100547.16;;;7.14;74.83
74403;BME280;62837;51.082;13.744;2022-12-05T11:36:05;100544.10;;;7.12;74.76
74403;BME280;62837;51.082;13.744;2022-12-05T11:38:41;100549.19;;;7.12;75.45
74403;BME280;62837;51.082;13.744;2022-12-05T11:41:30;100552.06;;;7.13;75.25
74403;BME280;62837;51.082;13.744;2022-12-05T11:44:20;100552.34;;;7.13;75.30
74403;BME280;62837;51.082;13.744;2022-12-05T11:47:02;100551.89;;;7.17;75.78
74403;BME280;62837;51.082;13.744;2022-12-05T11:49:51;100554.05;;;7.18;75.38
74403;BME280;62837;51.082;13.744;2022-12-05T11:52:40;100550.61;;;7.20;75.45
74403;BME280;62837;51.082;13.744;2022-12-05T11:55:20;100555.45;;;7.21;74.91
74403;BME280;62837;51.082;13.744;2022-12-05T11:58:26;100554.83;;;7.20;74.93
74403;BME280;62837;51.082;13.744;2022-12-05T12:01:13;100552.30;;;7.21;75.02
74403;BME280;62837;51.082;13.744;2022-12-05T12:06:51;100552.73;;;7.28;75.23
74403;BME280;62837;51.082;13.744;2022-12-05T12:09:33;100546.89;;;7.30;75.26
74403;BME280;62837;51.082;13.744;2022-12-05T12:12:20;100545.20;;;7.32;75.36
74403;BME280;62837;51.082;13.744;2022-12-05T12:14:58;100544.97;;;7.34;75.36
74403;BME280;62837;51.082;13.744;2022-12-05T12:17:40;100538.35;;;7.36;75.12
74403;BME280;62837;51.082;13.744;2022-12-05T12:20:31;100537.60;;;7.37;75.31
74403;BME280;62837;51.082;13.744;2022-12-05T12:23:11;100538.09;;;7.38;75.14
74403;BME280;62837;51.082;13.744;2022-12-05T12:25:55;100537.16;;;7.37;74.96
74403;BME280;62837;51.082;13.744;2022-12-05T12:28:37;100537.51;;;7.35;75.02
74403;BME280;62837;51.082;13.744;2022-12-05T12:31:36;100529.70;;;7.34;75.04
74403;BME280;62837;51.082;13.744;2022-12-05T12:34:24;100519.10;;;7.30;75.07
74403;BME280;62837;51.082;13.744;2022-12-05T12:37:02;100518.43;;;7.32;75.11
74403;BME280;62837;51.082;13.744;2022-12-05T12:39:45;100518.02;;;7.33;75.23
74403;BME280;62837;51.082;13.744;2022-12-05T12:42:22;100523.21;;;7.33;75.16
74403;BME280;62837;51.082;13.744;2022-12-05T12:48:30;100517.89;;;7.32;75.11
74403;BME280;62837;51.082;13.744;2022-12-05T12:51:05;100512.96;;;7.31;74.87
74403;BME280;62837;51.082;13.744;2022-12-05T12:53:55;100510.48;;;7.32;74.99
74403;BME280;62837;51.082;13.744;2022-12-05T12:56:38;100514.67;;;7.33;74.99
74403;BME280;62837;51.082;13.744;2022-12-05T12:59:24;100510.92;;;7.34;75.10
74403;BME280;62837;51.082;13.744;2022-12-05T13:02:03;100516.56;;;7.34;75.04
74403;BME280;62837;51.082;13.744;2022-12-05T13:04:48;100518.95;;;7.35;75.07
74403;BME280;62837;51.082;13.744;2022-12-05T13:07:23;100517.40;;;7.34;75.04
74403;BME280;62837;51.082;13.744;2022-12-05T13:09:59;100520.48;;;7.35;74.92
74403;BME280;62837;51.082;13.744;2022-12-05T13:12:36;100522.40;;;7.35;74.95
74403;BME280;62837;51.082;13.744;2022-12-05T13:15:14;100521.66;;;7.34;74.88
74403;BME280;62837;51.082;13.744;2022-12-05T13:17:47;100523.81;;;7.33;74.53
74403;BME280;62837;51.082;13.744;2022-12-05T13:20:20;100524.20;;;7.33;74.49
74403;BME280;62837;51.082;13.744;2022-12-05T13:22:52;100523.64;;;7.32;74.33
74403;BME280;62837;51.082;13.744;2022-12-05T13:25:26;100525.81;;;7.32;74.11
74403;BME280;62837;51.082;13.744;2022-12-05T13:28:00;100525.66;;;7.32;73.99
74403;BME280;62837;51.082;13.744;2022-12-05T13:30:33;100522.59;;;7.31;73.78
74403;BME280;62837;51.082;13.744;2022-12-05T13:33:25;100529.34;;;7.32;73.92
74403;BME280;62837;51.082;13.744;2022-12-05T13:36:05;100529.75;;;7.31;73.97
74403;BME280;62837;51.082;13.744;2022-12-05T13:38:59;100532.61;;;7.32;73.88
74403;BME280;62837;51.082;13.744;2022-12-05T13:41:50;100539.39;;;7.32;73.97
74403;BME280;62837;51.082;13.744;2022-12-05T13:44:41;100539.99;;;7.32;73.83